sensor_id;sensor_type;location;lat;lon;timestamp;pressure;altitude;pressure_sealevel;temperature;humidity
42519;BME280;28147;47.520;18.920;2023-04-06T00:09:31;98584.66;;;4.22;42.79
42519;BME280;28147;47.520;18.920;2023-04-06T00:11:56;98590.94;;;4.21;42.29
42519;BME280;28147;47.520;18.920;2023-04-06T00:14:23;98574.47;;;4.40;42.14
42519;BME280;28147;47.520;18.920;2023-04-06T00:16:48;98581.38;;;4.41;42.39
42519;BME280;28147;47.520;18.920;2023-04-06T00:19:14;98574.22;;;4.56;41.71
42519;BME280;28147;47.520;18.920;2023-04-06T00:21:39;98579.97;;;4.67;41.45
42519;BME280;28147;47.520;18.920;2023-04-06T00:24:05;98570.25;;;4.24;42.16
42519;BME280;28147;47.520;18.920;2023-04-06T00:26:30;98582.50;;;4.10;41.91
42519;BME280;28147;47.520;18.920;2023-04-06T00:28:56;98579.94;;;4.17;43.10
42519;BME280;28147;47.520;18.920;2023-04-06T00:31:21;98577.94;;;4.19;42.46
42519;BME280;28147;47.520;18.920;2023-04-06T00:33:48;98575.78;;;4.08;42.51
42519;BME280;28147;47.520;18.920;2023-04-06T00:36:13;98571.44;;;4.00;43.42
42519;BME280;28147;47.520;18.920;2023-04-06T00:38:38;98565.69;;;4.11;43.69
42519;BME280;28147;47.520;18.920;2023-04-06T00:41:04;98562.13;;;4.19;43.24
42519;BME280;28147;47.520;18.920;2023-04-06T00:44:14;98566.84;;;4.02;43.37
42519;BME280;28147;47.520;18.920;2023-04-06T00:46:40;98558.53;;;3.84;43.59
42519;BME280;28147;47.520;18.920;2023-04-06T00:49:05;98555.03;;;3.98;43.90
42519;BME280;28147;47.520;18.920;2023-04-06T00:51:31;98554.75;;;3.72;44.13
42519;BME280;28147;47.520;18.920;2023-04-06T01:25:52;98562.31;;;3.96;43.01
42519;BME280;28147;47.520;18.920;2023-04-06T01:48:35;98545.72;;;3.45;45.09
42519;BME280;28147;47.520;18.920;2023-04-06T02:18:15;98528.88;;;2.95;46.54
42519;BME280;28147;47.520;18.920;2023-04-06T02:23:18;98517.97;;;3.42;45.76
42519;BME280;28147;47.520;18.920;2023-04-06T02:25:43;98509.78;;;3.37;45.25
42519;BME280;28147;47.520;18.920;2023-04-06T02:28:09;98517.28;;;3.19;45.69
42519;BME280;28147;47.520;18.920;2023-04-06T02:32:51;98516.63;;;3.16;45.46
42519;BME280;28147;47.520;18.920;2023-04-06T02:38:09;98516.44;;;3.18;44.73
42519;BME280;28147;47.520;18.920;2023-04-06T02:40:35;98517.91;;;3.06;44.86
42519;BME280;28147;47.520;18.920;2023-04-06T02:43:00;98516.16;;;3.28;44.27
42519;BME280;28147;47.520;18.920;2023-04-06T02:47:11;98503.94;;;3.05;45.29
42519;BME280;28147;47.520;18.920;2023-04-06T02:49:37;98510.13;;;3.12;45.09
42519;BME280;28147;47.520;18.920;2023-04-06T02:52:03;98506.69;;;3.12;45.36
42519;BME280;28147;47.520;18.920;2023-04-06T02:54:28;98512.19;;;3.17;45.86
42519;BME280;28147;47.520;18.920;2023-04-06T02:56:54;98511.38;;;3.02;46.61
42519;BME280;28147;47.520;18.920;2023-04-06T02:59:19;98491.00;;;3.04;46.36
42519;BME280;28147;47.520;18.920;2023-04-06T03:04:53;98506.31;;;2.85;46.55
42519;BME280;28147;47.520;18.920;2023-04-06T03:07:18;98503.69;;;2.71;47.64
42519;BME280;28147;47.520;18.920;2023-04-06T03:09:44;98503.94;;;2.90;46.94
42519;BME280;28147;47.520;18.920;2023-04-06T03:12:09;98503.41;;;2.80;47.57
42519;BME280;28147;47.520;18.920;2023-04-06T03:17:15;98500.47;;;3.34;46.25
42519;BME280;28147;47.520;18.920;2023-04-06T03:19:41;98498.06;;;3.03;46.86
42519;BME280;28147;47.520;18.920;2023-04-06T03:22:39;98507.47;;;3.12;46.67
42519;BME280;28147;47.520;18.920;2023-04-06T03:25:05;98501.97;;;3.07;46.71
42519;BME280;28147;47.520;18.920;2023-04-06T03:27:30;98504.59;;;2.78;47.24
42519;BME280;28147;47.520;18.920;2023-04-06T03:29:56;98501.97;;;2.78;46.79
42519;BME280;28147;47.520;18.920;2023-04-06T03:32:22;98508.41;;;2.90;46.85
42519;BME280;28147;47.520;18.920;2023-04-06T03:37:27;98501.69;;;3.02;46.37
42519;BME280;28147;47.520;18.920;2023-04-06T03:39:52;98510.94;;;2.98;46.16
42519;BME280;28147;47.520;18.920;2023-04-06T03:45:03;98491.56;;;2.84;46.61
42519;BME280;28147;47.520;18.920;2023-04-06T03:47:28;98507.28;;;2.99;46.17
42519;BME280;28147;47.520;18.920;2023-04-06T03:51:01;98508.94;;;3.00;45.75
42519;BME280;28147;47.520;18.920;2023-04-06T03:58:43;98499.25;;;2.86;45.51
42519;BME280;28147;47.520;18.920;2023-04-06T04:01:10;98498.78;;;2.67;47.10
42519;BME280;28147;47.520;18.920;2023-04-06T04:03:35;98500.50;;;2.90;46.68
42519;BME280;28147;47.520;18.920;2023-04-06T04:06:01;98496.25;;;2.89;45.93
42519;BME280;28147;47.520;18.920;2023-04-06T04:08:27;98500.31;;;2.91;45.87
42519;BME280;28147;47.520;18.920;2023-04-06T04:10:52;98494.44;;;2.75;46.01
42519;BME280;28147;47.520;18.920;2023-04-06T04:13:18;98489.72;;;3.00;45.89
42519;BME280;28147;47.520;18.920;2023-04-06T04:15:43;98489.19;;;3.04;45.72
42519;BME280;28147;47.520;18.920;2023-04-06T04:18:09;98486.88;;;3.31;45.69
42519;BME280;28147;47.520;18.920;2023-04-06T04:20:34;98487.72;;;3.16;45.29
42519;BME280;28147;47.520;18.920;2023-04-06T04:23:08;98496.34;;;2.81;46.29
42519;BME280;28147;47.520;18.920;2023-04-06T04:28:08;98504.09;;;2.44;47.42
42519;BME280;28147;47.520;18.920;2023-04-06T04:30:33;98489.44;;;2.80;46.33
42519;BME280;28147;47.520;18.920;2023-04-06T04:32:58;98499.97;;;2.80;46.76
42519;BME280;28147;47.520;18.920;2023-04-06T04:35:24;98493.78;;;2.73;46.23
42519;BME280;28147;47.520;18.920;2023-04-06T04:37:49;98499.50;;;3.21;45.52
42519;BME280;28147;47.520;18.920;2023-04-06T04:40:15;98489.63;;;2.78;45.62
42519;BME280;28147;47.520;18.920;2023-04-06T04:42:41;98493.63;;;1.84;47.64
42519;BME280;28147;47.520;18.920;2023-04-06T04:45:07;98491.06;;;2.51;46.79
42519;BME280;28147;47.520;18.920;2023-04-06T04:50:07;98485.75;;;2.22;47.21
42519;BME280;28147;47.520;18.920;2023-04-06T04:53:10;98475.81;;;1.94;47.96
42519;BME280;28147;47.520;18.920;2023-04-06T04:55:35;98475.16;;;2.15;48.23
42519;BME280;28147;47.520;18.920;2023-04-06T04:58:00;98476.88;;;1.85;47.37
42519;BME280;28147;47.520;18.920;2023-04-06T05:00:27;98482.38;;;2.51;46.72
42519;BME280;28147;47.520;18.920;2023-04-06T05:02:56;98473.97;;;2.85;45.02
42519;BME280;28147;47.520;18.920;2023-04-06T05:05:22;98473.41;;;3.04;44.34
42519;BME280;28147;47.520;18.920;2023-04-06T05:07:47;98477.41;;;3.00;43.65
42519;BME280;28147;47.520;18.920;2023-04-06T05:10:13;98471.84;;;2.95;44.15
42519;BME280;28147;47.520;18.920;2023-04-06T05:12:38;98467.38;;;3.61;42.75
42519;BME280;28147;47.520;18.920;2023-04-06T05:15:13;98464.41;;;3.13;44.33
42519;BME280;28147;47.520;18.920;2023-04-06T05:17:38;98464.81;;;3.32;43.79
42519;BME280;28147;47.520;18.920;2023-04-06T05:20:05;98456.81;;;3.04;44.02
42519;BME280;28147;47.520;18.920;2023-04-06T05:22:30;98463.59;;;3.13;44.28
42519;BME280;28147;47.520;18.920;2023-04-06T05:24:56;98445.47;;;3.82;43.61
42519;BME280;28147;47.520;18.920;2023-04-06T05:27:22;98449.13;;;3.81;43.51
42519;BME280;28147;47.520;18.920;2023-04-06T05:29:47;98440.03;;;3.62;43.56
42519;BME280;28147;47.520;18.920;2023-04-06T05:32:13;98428.63;;;3.55;43.57
42519;BME280;28147;47.520;18.920;2023-04-06T05:34:38;98456.56;;;3.35;43.29
42519;BME280;28147;47.520;18.920;2023-04-06T05:37:04;98444.66;;;3.39;45.28
42519;BME280;28147;47.520;18.920;2023-04-06T05:39:29;98443.75;;;3.68;43.63
42519;BME280;28147;47.520;18.920;2023-04-06T05:41:55;98445.19;;;4.20;43.22
42519;BME280;28147;47.520;18.920;2023-04-06T05:46:56;98440.69;;;3.64;42.41
42519;BME280;28147;47.520;18.920;2023-04-06T05:50:34;98440.94;;;2.97;43.86
42519;BME280;28147;47.520;18.920;2023-04-06T05:53:00;98435.25;;;2.93;44.42
42519;BME280;28147;47.520;18.920;2023-04-06T05:55:25;98435.38;;;3.43;43.69
42519;BME280;28147;47.520;18.920;2023-04-06T05:57:51;98430.75;;;3.66;43.55
42519;BME280;28147;47.520;18.920;2023-04-06T06:00:16;98428.34;;;3.93;42.95
42519;BME280;28147;47.520;18.920;2023-04-06T06:02:42;98429.28;;;4.07;42.70
42519;BME280;28147;47.520;18.920;2023-04-06T06:05:08;98428.53;;;4.41;42.28
42519;BME280;28147;47.520;18.920;2023-04-06T06:07:34;98411.66;;;4.70;40.61
42519;BME280;28147;47.520;18.920;2023-04-06T06:10:00;98412.88;;;5.29;38.08
42519;BME280;28147;47.520;18.920;2023-04-06T06:12:25;98416.19;;;5.64;37.72
42519;BME280;28147;47.520;18.920;2023-04-06T06:14:51;98411.38;;;5.94;36.94
42519;BME280;28147;47.520;18.920;2023-04-06T06:17:16;98420.31;;;6.20;36.09
42519;BME280;28147;47.520;18.920;2023-04-06T06:19:42;98414.41;;;6.31;35.70
42519;BME280;28147;47.520;18.920;2023-04-06T06:22:07;98406.09;;;5.94;36.36
42519;BME280;28147;47.520;18.920;2023-04-06T06:24:33;98405.66;;;5.77;36.11
42519;BME280;28147;47.520;18.920;2023-04-06T06:26:58;98396.91;;;5.50;36.14
42519;BME280;28147;47.520;18.920;2023-04-06T06:29:24;98418.69;;;6.19;36.28
42519;BME280;28147;47.520;18.920;2023-04-06T06:31:49;98412.56;;;6.45;35.73
42519;BME280;28147;47.520;18.920;2023-04-06T06:34:15;98406.88;;;6.41;35.41
42519;BME280;28147;47.520;18.920;2023-04-06T06:36:40;98404.16;;;6.68;34.78
42519;BME280;28147;47.520;18.920;2023-04-06T06:39:05;98397.53;;;6.32;35.45
42519;BME280;28147;47.520;18.920;2023-04-06T06:41:31;98403.84;;;6.31;35.39
42519;BME280;28147;47.520;18.920;2023-04-06T06:43:56;98403.31;;;6.80;35.30
42519;BME280;28147;47.520;18.920;2023-04-06T06:46:22;98404.25;;;6.99;34.59
42519;BME280;28147;47.520;18.920;2023-04-06T06:48:47;98405.31;;;6.85;34.62
42519;BME280;28147;47.520;18.920;2023-04-06T06:51:13;98400.91;;;6.59;34.67
42519;BME280;28147;47.520;18.920;2023-04-06T06:53:38;98394.72;;;6.92;35.46
42519;BME280;28147;47.520;18.920;2023-04-06T06:56:04;98393.69;;;6.93;34.65
42519;BME280;28147;47.520;18.920;2023-04-06T06:58:29;98393.19;;;6.64;34.55
42519;BME280;28147;47.520;18.920;2023-04-06T07:00:58;98393.25;;;6.44;34.40
42519;BME280;28147;47.520;18.920;2023-04-06T07:03:24;98392.00;;;6.60;35.27
42519;BME280;28147;47.520;18.920;2023-04-06T07:05:50;98392.00;;;6.40;34.98
42519;BME280;28147;47.520;18.920;2023-04-06T07:08:22;98395.28;;;6.36;35.02
42519;BME280;28147;47.520;18.920;2023-04-06T07:10:48;98387.00;;;6.90;34.69
42519;BME280;28147;47.520;18.920;2023-04-06T07:13:14;98393.66;;;7.06;34.64
42519;BME280;28147;47.520;18.920;2023-04-06T07:15:47;98396.28;;;7.06;34.85
42519;BME280;28147;47.520;18.920;2023-04-06T07:18:12;98396.03;;;6.63;34.94
42519;BME280;28147;47.520;18.920;2023-04-06T07:20:38;98394.47;;;6.28;35.47
42519;BME280;28147;47.520;18.920;2023-04-06T07:23:03;98383.75;;;6.81;34.69
42519;BME280;28147;47.520;18.920;2023-04-06T07:25:29;98396.16;;;6.88;34.63
42519;BME280;28147;47.520;18.920;2023-04-06T07:27:56;98397.22;;;6.80;34.80
42519;BME280;28147;47.520;18.920;2023-04-06T07:30:22;98401.19;;;7.02;35.20
42519;BME280;28147;47.520;18.920;2023-04-06T07:32:48;98402.25;;;6.88;35.05
42519;BME280;28147;47.520;18.920;2023-04-06T07:35:14;98402.00;;;7.41;34.29
42519;BME280;28147;47.520;18.920;2023-04-06T07:37:40;98386.25;;;7.53;34.56
42519;BME280;28147;47.520;18.920;2023-04-06T07:40:06;98394.31;;;7.65;34.29
42519;BME280;28147;47.520;18.920;2023-04-06T07:42:31;98371.06;;;7.67;34.01
42519;BME280;28147;47.520;18.920;2023-04-06T07:44:58;98386.28;;;7.78;34.12
42519;BME280;28147;47.520;18.920;2023-04-06T07:47:23;98383.34;;;7.86;34.65
42519;BME280;28147;47.520;18.920;2023-04-06T07:49:49;98383.78;;;7.58;34.50
42519;BME280;28147;47.520;18.920;2023-04-06T07:52:15;98388.34;;;7.44;34.65
42519;BME280;28147;47.520;18.920;2023-04-06T07:54:40;98388.75;;;7.41;34.60
42519;BME280;28147;47.520;18.920;2023-04-06T07:57:06;98396.31;;;7.38;34.60
42519;BME280;28147;47.520;18.920;2023-04-06T07:59:32;98393.03;;;7.04;35.31
42519;BME280;28147;47.520;18.920;2023-04-06T08:01:57;98387.44;;;7.25;35.19
42519;BME280;28147;47.520;18.920;2023-04-06T08:04:23;98383.09;;;7.69;34.80
42519;BME280;28147;47.520;18.920;2023-04-06T08:06:48;98386.81;;;7.62;35.15
42519;BME280;28147;47.520;18.920;2023-04-06T08:09:14;98382.63;;;7.47;34.90
42519;BME280;28147;47.520;18.920;2023-04-06T08:11:39;98387.31;;;7.77;34.72
42519;BME280;28147;47.520;18.920;2023-04-06T08:14:05;98386.91;;;7.98;36.02
42519;BME280;28147;47.520;18.920;2023-04-06T08:16:31;98387.09;;;8.03;36.94
42519;BME280;28147;47.520;18.920;2023-04-06T08:18:56;98373.84;;;7.78;34.73
42519;BME280;28147;47.520;18.920;2023-04-06T08:21:22;98380.75;;;8.04;34.33
42519;BME280;28147;47.520;18.920;2023-04-06T08:23:47;98377.72;;;8.26;34.12
42519;BME280;28147;47.520;18.920;2023-04-06T08:26:12;98378.50;;;8.08;33.84
42519;BME280;28147;47.520;18.920;2023-04-06T08:28:41;98373.56;;;8.12;34.60
42519;BME280;28147;47.520;18.920;2023-04-06T08:31:07;98371.38;;;7.52;34.64
42519;BME280;28147;47.520;18.920;2023-04-06T08:33:33;98365.50;;;8.00;34.21
42519;BME280;28147;47.520;18.920;2023-04-06T08:36:12;98366.97;;;7.71;34.01
42519;BME280;28147;47.520;18.920;2023-04-06T08:38:39;98362.44;;;7.78;34.25
42519;BME280;28147;47.520;18.920;2023-04-06T08:41:13;98357.78;;;7.73;34.56
42519;BME280;28147;47.520;18.920;2023-04-06T08:46:18;98351.06;;;7.71;34.65
42519;BME280;28147;47.520;18.920;2023-04-06T08:48:45;98341.34;;;7.33;34.95
42519;BME280;28147;47.520;18.920;2023-04-06T08:51:11;98347.50;;;7.59;34.56
42519;BME280;28147;47.520;18.920;2023-04-06T08:53:37;98346.41;;;7.91;33.92
42519;BME280;28147;47.520;18.920;2023-04-06T08:56:04;98338.56;;;8.21;33.73
42519;BME280;28147;47.520;18.920;2023-04-06T08:58:34;98346.53;;;8.65;33.56
42519;BME280;28147;47.520;18.920;2023-04-06T09:01:00;98342.53;;;9.34;32.63
42519;BME280;28147;47.520;18.920;2023-04-06T09:03:28;98339.34;;;9.44;31.54
42519;BME280;28147;47.520;18.920;2023-04-06T09:05:55;98340.34;;;9.96;30.81
42519;BME280;28147;47.520;18.920;2023-04-06T09:08:21;98342.31;;;10.36;31.67
42519;BME280;28147;47.520;18.920;2023-04-06T09:10:47;98335.38;;;10.87;30.31
42519;BME280;28147;47.520;18.920;2023-04-06T09:13:13;98329.75;;;10.60;29.79
42519;BME280;28147;47.520;18.920;2023-04-06T09:15:38;98331.78;;;10.53;30.25
42519;BME280;28147;47.520;18.920;2023-04-06T09:18:04;98346.25;;;10.45;29.35
42519;BME280;28147;47.520;18.920;2023-04-06T09:20:29;98332.13;;;9.74;29.88
42519;BME280;28147;47.520;18.920;2023-04-06T09:22:55;98329.31;;;9.69;29.97
42519;BME280;28147;47.520;18.920;2023-04-06T09:25:22;98331.31;;;9.74;29.16
42519;BME280;28147;47.520;18.920;2023-04-06T09:27:57;98324.13;;;9.51;29.77
42519;BME280;28147;47.520;18.920;2023-04-06T09:30:23;98323.16;;;9.04;30.06
42519;BME280;28147;47.520;18.920;2023-04-06T09:32:52;98315.03;;;8.87;30.40
42519;BME280;28147;47.520;18.920;2023-04-06T09:35:18;98315.94;;;8.92;30.20
42519;BME280;28147;47.520;18.920;2023-04-06T09:37:48;98318.66;;;9.46;30.46
42519;BME280;28147;47.520;18.920;2023-04-06T09:40:14;98316.94;;;9.52;30.61
42519;BME280;28147;47.520;18.920;2023-04-06T09:42:46;98317.56;;;8.93;30.42
42519;BME280;28147;47.520;18.920;2023-04-06T09:45:12;98314.16;;;9.05;30.22
42519;BME280;28147;47.520;18.920;2023-04-06T09:47:40;98311.13;;;8.71;30.49
42519;BME280;28147;47.520;18.920;2023-04-06T09:50:09;98307.53;;;9.25;30.37
42519;BME280;28147;47.520;18.920;2023-04-06T09:52:47;98314.88;;;9.65;30.20
42519;BME280;28147;47.520;18.920;2023-04-06T09:55:22;98308.66;;;9.95;29.37
42519;BME280;28147;47.520;18.920;2023-04-06T09:57:58;98307.00;;;10.41;29.10
42519;BME280;28147;47.520;18.920;2023-04-06T10:00:26;98308.34;;;10.27;28.83
42519;BME280;28147;47.520;18.920;2023-04-06T10:05:59;98298.19;;;10.92;28.62
42519;BME280;28147;47.520;18.920;2023-04-06T10:08:30;98308.34;;;10.67;28.75
42519;BME280;28147;47.520;18.920;2023-04-06T10:10:58;98299.88;;;9.71;29.25
42519;BME280;28147;47.520;18.920;2023-04-06T10:13:24;98303.81;;;10.15;29.78
42519;BME280;28147;47.520;18.920;2023-04-06T10:15:51;98297.00;;;11.00;29.26
42519;BME280;28147;47.520;18.920;2023-04-06T10:18:17;98294.28;;;10.83;28.54
42519;BME280;28147;47.520;18.920;2023-04-06T10:20:49;98295.22;;;11.06;28.64
42519;BME280;28147;47.520;18.920;2023-04-06T10:26:21;98277.16;;;11.08;28.11
42519;BME280;28147;47.520;18.920;2023-04-06T10:28:48;98284.56;;;11.68;27.25
42519;BME280;28147;47.520;18.920;2023-04-06T10:31:14;98279.69;;;11.65;27.81
42519;BME280;28147;47.520;18.920;2023-04-06T10:33:40;98270.97;;;11.19;28.24
42519;BME280;28147;47.520;18.920;2023-04-06T10:38:42;98273.47;;;10.80;27.83
42519;BME280;28147;47.520;18.920;2023-04-06T10:41:09;98278.16;;;11.18;27.98
42519;BME280;28147;47.520;18.920;2023-04-06T10:43:37;98260.97;;;11.26;28.07
42519;BME280;28147;47.520;18.920;2023-04-06T10:46:04;98263.38;;;11.28;28.38
42519;BME280;28147;47.520;18.920;2023-04-06T10:48:43;98270.31;;;11.12;28.03
42519;BME280;28147;47.520;18.920;2023-04-06T10:51:17;98262.72;;;11.54;27.88
42519;BME280;28147;47.520;18.920;2023-04-06T10:53:46;98262.09;;;11.64;28.86
42519;BME280;28147;47.520;18.920;2023-04-06T10:56:17;98266.44;;;11.19;28.07
42519;BME280;28147;47.520;18.920;2023-04-06T10:58:52;98257.59;;;10.45;29.07
42519;BME280;28147;47.520;18.920;2023-04-06T11:01:19;98254.72;;;11.04;30.01
42519;BME280;28147;47.520;18.920;2023-04-06T11:03:52;98255.38;;;11.11;29.46
42519;BME280;28147;47.520;18.920;2023-04-06T11:06:22;98262.84;;;10.97;28.36
42519;BME280;28147;47.520;18.920;2023-04-06T11:08:49;98254.44;;;11.34;28.63
42519;BME280;28147;47.520;18.920;2023-04-06T11:11:16;98259.72;;;10.71;29.41
42519;BME280;28147;47.520;18.920;2023-04-06T11:13:49;98249.78;;;10.95;28.80
42519;BME280;28147;47.520;18.920;2023-04-06T11:18:56;98261.84;;;10.58;28.68
42519;BME280;28147;47.520;18.920;2023-04-06T11:21:41;98252.91;;;10.92;28.68
42519;BME280;28147;47.520;18.920;2023-04-06T11:24:09;98254.53;;;10.93;28.49
42519;BME280;28147;47.520;18.920;2023-04-06T11:26:46;98257.84;;;10.43;29.08
42519;BME280;28147;47.520;18.920;2023-04-06T11:29:15;98254.44;;;10.60;28.94
42519;BME280;28147;47.520;18.920;2023-04-06T11:32:02;98255.22;;;10.72;27.83
42519;BME280;28147;47.520;18.920;2023-04-06T11:34:29;98255.47;;;10.59;29.23
42519;BME280;28147;47.520;18.920;2023-04-06T11:36:58;98246.72;;;11.04;28.95
42519;BME280;28147;47.520;18.920;2023-04-06T11:39:25;98246.91;;;11.14;29.09
42519;BME280;28147;47.520;18.920;2023-04-06T11:41:53;98248.31;;;10.88;28.69
42519;BME280;28147;47.520;18.920;2023-04-06T11:44:33;98244.25;;;10.85;28.29
42519;BME280;28147;47.520;18.920;2023-04-06T11:47:00;98245.94;;;10.75;28.36
42519;BME280;28147;47.520;18.920;2023-04-06T11:49:32;98245.66;;;11.05;28.77
42519;BME280;28147;47.520;18.920;2023-04-06T11:52:00;98236.66;;;11.39;28.29
42519;BME280;28147;47.520;18.920;2023-04-06T11:54:35;98235.75;;;11.84;28.24
42519;BME280;28147;47.520;18.920;2023-04-06T11:57:03;98228.00;;;11.49;27.81
42519;BME280;28147;47.520;18.920;2023-04-06T11:59:28;98227.59;;;11.57;28.27
42519;BME280;28147;47.520;18.920;2023-04-06T12:01:54;98238.50;;;11.39;27.83
42519;BME280;28147;47.520;18.920;2023-04-06T12:04:20;98232.31;;;11.33;28.03
42519;BME280;28147;47.520;18.920;2023-04-06T12:06:45;98244.91;;;10.64;27.88
42519;BME280;28147;47.520;18.920;2023-04-06T12:09:11;98234.22;;;10.47;28.28
42519;BME280;28147;47.520;18.920;2023-04-06T12:11:36;98242.09;;;10.54;28.66
42519;BME280;28147;47.520;18.920;2023-04-06T12:14:04;98240.94;;;10.50;29.04
42519;BME280;28147;47.520;18.920;2023-04-06T12:16:31;98249.13;;;9.84;29.36
42519;BME280;28147;47.520;18.920;2023-04-06T12:18:56;98242.97;;;10.07;29.50
42519;BME280;28147;47.520;18.920;2023-04-06T12:21:22;98236.63;;;9.96;29.25
42519;BME280;28147;47.520;18.920;2023-04-06T12:23:47;98232.97;;;9.74;29.87
42519;BME280;28147;47.520;18.920;2023-04-06T12:26:13;98244.41;;;9.63;29.85
42519;BME280;28147;47.520;18.920;2023-04-06T12:28:38;98233.41;;;9.83;29.19
42519;BME280;28147;47.520;18.920;2023-04-06T12:31:04;98234.88;;;10.02;29.55
42519;BME280;28147;47.520;18.920;2023-04-06T12:33:29;98233.28;;;9.89;29.15
42519;BME280;28147;47.520;18.920;2023-04-06T12:35:55;98233.84;;;9.91;29.64
42519;BME280;28147;47.520;18.920;2023-04-06T12:38:21;98230.81;;;10.23;29.17
42519;BME280;28147;47.520;18.920;2023-04-06T12:40:47;98232.31;;;10.31;29.24
42519;BME280;28147;47.520;18.920;2023-04-06T12:43:12;98232.03;;;10.44;28.70
42519;BME280;28147;47.520;18.920;2023-04-06T12:45:39;98222.25;;;10.33;28.04
42519;BME280;28147;47.520;18.920;2023-04-06T12:48:05;98223.53;;;10.87;28.96
42519;BME280;28147;47.520;18.920;2023-04-06T12:50:31;98227.00;;;10.59;28.19
42519;BME280;28147;47.520;18.920;2023-04-06T12:52:56;98228.81;;;10.42;28.12
42519;BME280;28147;47.520;18.920;2023-04-06T12:55:22;98225.69;;;10.33;28.77
42519;BME280;28147;47.520;18.920;2023-04-06T12:57:47;98218.69;;;10.15;28.15
42519;BME280;28147;47.520;18.920;2023-04-06T13:00:13;98241.47;;;9.99;28.16
42519;BME280;28147;47.520;18.920;2023-04-06T13:02:40;98229.97;;;9.59;28.93
42519;BME280;28147;47.520;18.920;2023-04-06T13:05:05;98231.31;;;9.73;28.64
42519;BME280;28147;47.520;18.920;2023-04-06T13:07:31;98210.50;;;9.93;29.07
42519;BME280;28147;47.520;18.920;2023-04-06T13:09:56;98223.34;;;9.85;29.03
42519;BME280;28147;47.520;18.920;2023-04-06T13:12:22;98222.31;;;9.74;28.85
42519;BME280;28147;47.520;18.920;2023-04-06T13:14:47;98233.50;;;9.99;28.73
42519;BME280;28147;47.520;18.920;2023-04-06T13:17:16;98223.34;;;9.85;29.17
42519;BME280;28147;47.520;18.920;2023-04-06T13:19:42;98225.28;;;10.01;29.17
42519;BME280;28147;47.520;18.920;2023-04-06T13:22:08;98227.50;;;10.04;29.59
42519;BME280;28147;47.520;18.920;2023-04-06T13:24:33;98238.47;;;10.08;29.03
42519;BME280;28147;47.520;18.920;2023-04-06T13:26:59;98221.56;;;10.14;29.67
42519;BME280;28147;47.520;18.920;2023-04-06T13:29:26;98209.72;;;9.81;29.14
42519;BME280;28147;47.520;18.920;2023-04-06T13:31:52;98215.19;;;10.38;30.02
42519;BME280;28147;47.520;18.920;2023-04-06T13:34:18;98215.66;;;10.23;30.26
42519;BME280;28147;47.520;18.920;2023-04-06T13:36:43;98216.38;;;9.95;29.83
42519;BME280;28147;47.520;18.920;2023-04-06T13:39:08;98214.56;;;9.84;29.23
42519;BME280;28147;47.520;18.920;2023-04-06T13:41:34;98205.09;;;9.77;30.30
42519;BME280;28147;47.520;18.920;2023-04-06T13:43:59;98208.22;;;9.85;30.17
42519;BME280;28147;47.520;18.920;2023-04-06T13:46:25;98202.09;;;9.61;30.33
42519;BME280;28147;47.520;18.920;2023-04-06T13:48:52;98206.38;;;9.74;30.48
42519;BME280;28147;47.520;18.920;2023-04-06T13:51:17;98202.06;;;9.96;30.04
42519;BME280;28147;47.520;18.920;2023-04-06T13:53:43;98202.66;;;9.75;30.96
42519;BME280;28147;47.520;18.920;2023-04-06T13:56:09;98207.41;;;9.38;31.68
42519;BME280;28147;47.520;18.920;2023-04-06T13:58:34;98196.09;;;9.54;31.68
42519;BME280;28147;47.520;18.920;2023-04-06T14:01:05;98205.34;;;9.52;31.58
42519;BME280;28147;47.520;18.920;2023-04-06T14:03:31;98210.41;;;9.41;31.77
42519;BME280;28147;47.520;18.920;2023-04-06T14:07:13;98209.16;;;9.56;32.65
42519;BME280;28147;47.520;18.920;2023-04-06T14:11:43;98202.00;;;9.56;32.04
42519;BME280;28147;47.520;18.920;2023-04-06T14:15:53;98202.31;;;9.83;32.52
42519;BME280;28147;47.520;18.920;2023-04-06T14:18:19;98197.78;;;9.95;32.55
42519;BME280;28147;47.520;18.920;2023-04-06T14:30:01;98194.72;;;9.28;33.57
42519;BME280;28147;47.520;18.920;2023-04-06T14:32:27;98200.81;;;9.17;33.43
42519;BME280;28147;47.520;18.920;2023-04-06T14:34:52;98202.78;;;9.33;33.59
42519;BME280;28147;47.520;18.920;2023-04-06T14:43:37;98216.41;;;9.25;34.76
42519;BME280;28147;47.520;18.920;2023-04-06T14:46:02;98216.06;;;9.33;34.36
42519;BME280;28147;47.520;18.920;2023-04-06T15:03:55;98217.44;;;8.70;39.07
42519;BME280;28147;47.520;18.920;2023-04-06T15:08:58;98212.22;;;8.64;38.40
42519;BME280;28147;47.520;18.920;2023-04-06T15:16:07;98220.00;;;9.42;37.44
42519;BME280;28147;47.520;18.920;2023-04-06T15:27:48;98214.03;;;8.93;40.12
42519;BME280;28147;47.520;18.920;2023-04-06T15:31:57;98210.59;;;8.63;41.05
42519;BME280;28147;47.520;18.920;2023-04-06T15:37:56;98218.69;;;8.98;40.31
42519;BME280;28147;47.520;18.920;2023-04-06T15:42:23;98218.41;;;8.88;40.66
42519;BME280;28147;47.520;18.920;2023-04-06T15:44:48;98222.88;;;8.75;40.61
42519;BME280;28147;47.520;18.920;2023-04-06T15:47:14;98226.56;;;8.74;40.59
42519;BME280;28147;47.520;18.920;2023-04-06T15:49:39;98229.84;;;8.58;41.57
42519;BME280;28147;47.520;18.920;2023-04-06T15:52:05;98223.25;;;8.49;41.67
42519;BME280;28147;47.520;18.920;2023-04-06T15:54:30;98229.88;;;8.70;40.79
42519;BME280;28147;47.520;18.920;2023-04-06T15:56:55;98235.78;;;8.42;41.34
42519;BME280;28147;47.520;18.920;2023-04-06T15:59:21;98233.25;;;8.10;42.26
42519;BME280;28147;47.520;18.920;2023-04-06T16:01:46;98223.53;;;7.67;43.08
42519;BME280;28147;47.520;18.920;2023-04-06T16:04:12;98229.22;;;8.08;42.38
42519;BME280;28147;47.520;18.920;2023-04-06T16:06:38;98229.41;;;8.24;41.90
42519;BME280;28147;47.520;18.920;2023-04-06T16:09:04;98230.16;;;7.95;42.38
42519;BME280;28147;47.520;18.920;2023-04-06T16:11:29;98245.69;;;8.10;42.42
42519;BME280;28147;47.520;18.920;2023-04-06T16:13:56;98245.50;;;8.11;42.70